Tiempo atmosférico en la estación meteorológica de San Sebastián Aeropuerto, Gipuzkoa (4 m.)



Fecha
DESCASC
Temp. máxima en grados centígrados (hora)
DESCASC
Temp. mínima en grados centígrados (hora)
DESCASC
Temp. media en grados centígrados
DESCASC
Racha de viento máxima en m/sg (hora)
DESCASC
Velocidad máxima media en intervalos de 10 minutos(hora)
DESCASC
Precipitaciones diarias en mm
DESCASC
Precipitaciones de 00:00 a 06:00 en mm
DESCASC
Precipitaciones de 06:00 a 12:00 en mm
DESCASC
Precipitaciones de 12:00 a 18:00 en mm
DESCASC
Precipitaciones de 18:00 a 24:00 en mm
DESCASC
17-09-2020 28.8 (15:20) 18.6 (06:10) 23.7 4.72 (17:30) 3.61 (17:30) 0 0 0 0 0
16-09-2020 25.9 (17:10) 18.3 (06:30) 22.1 5.83 (17:40) 4.17 (17:00) 0 0 0 0 0
15-09-2020 27.5 (15:50) 20.5 (08:40) 24 7.78 (01:20) 4.17 (04:50) 0.4 0 0.4 0 0
14-09-2020 35.5 (15:40) 21.2 (00:00) 28.4 10.83 (11:00) 6.67 (13:00) 0 0 0 0 0
13-09-2020 32.1 (18:20) 15 (00:00) 23.5 7.78 (11:40) 5.56 (11:40) 0 0 0 0 0
12-09-2020 25.8 (15:50) 16.8 (00:00) 21.3 6.11 (15:20) 3.89 (16:00) 0 0 0 0 0
11-09-2020 25.1 (17:10) 17.6 (00:00) 21.4 5 (15:00) 3.89 (15:10) 0 0 0 0 0
10-09-2020 26.2 (16:50) 16.5 (00:00) 21.4 8.33 (15:10) 5.28 (17:20) 0 0 0 0 0
09-09-2020 25.5 (16:40) 13.7 (00:00) 19.6 6.67 (16:50) 4.44 (15:00) 0 0 0 0 0
08-09-2020 24.3 (16:20) 12.9 (00:00) 18.6 5.83 (17:50) 4.17 (13:50) 0 0 0 0 0
07-09-2020 22.1 (16:10) 15.1 (07:50) 18.6 7.78 (16:20) 5.28 (03:10) 0 0 0 0 0
06-09-2020 23.1 (13:20) 18.6 (00:00) 20.9 7.78 (16:20) 4.72 (16:20) 0 0 0 0 0
05-09-2020 25.1 (15:10) 20.1 (00:00) 22.6 9.72 (05:40) 5.83 (05:40) 0 0 0 0 0
04-09-2020 31.2 (17:40) 14.7 (00:00) 23 5 (13:20) 3.61 (13:50) 0 0 0 0 0
03-09-2020 27.3 (16:20) 12.8 (00:00) 20 7.22 (17:00) 4.72 (17:40) 0 0 0 0 0
02-09-2020 24.5 (16:20) 14.4 (00:00) 19.4 6.67 (16:10) 5 (16:40) -- 0 -- -- 0
01-09-2020 24.9 (15:30) 14.2 (00:00) 19.5 6.67 (17:00) 4.17 (17:00) 0 0 0 0 0
31-08-2020 22.1 (14:30) 12.5 (00:00) 17.3 6.11 (14:50) 4.17 (15:10) 0 0 0 0 0
30-08-2020 21 (15:50) 14.3 (00:00) 17.7 11.67 (05:00) 6.11 (16:10) 14.3 3.8 10.5 0 0
29-08-2020 20.5 (17:10) 13.8 (00:00) 17.2 12.78 (23:20) 7.5 (23:20) 53 8.3 20.9 2.5 21.3
28-08-2020 22.9 (00:00) 15.9 (00:00) 19.4 10.28 (06:40) 6.11 (07:00) 29.4 0.5 11.9 10.8 6.2
27-08-2020 29.5 (15:50) 18.8 (00:00) 24.1 7.78 (16:30) 5 (14:40) 0 0 0 0 0
26-08-2020 26.2 (16:30) 19.5 (00:00) 22.9 6.11 (17:10) 4.17 (17:10) 0 0 0 0 0
25-08-2020 28.7 (12:00) 15.4 (00:00) 22.1 9.17 (12:20) 6.11 (12:20) 0 0 0 0 0
24-08-2020 24.8 (15:30) 18.1 (00:00) 21.4 6.67 (14:10) 4.44 (19:10) 0 0 0 0 0
23-08-2020 25 (15:30) 18 (00:00) 21.5 7.22 (13:40) 3.61 (13:40) 0 0 0 0 0
22-08-2020 26.2 (14:00) 17 (00:00) 21.6 7.78 (16:00) 4.44 (15:50) 0 0 0 0 0
21-08-2020 26 (11:50) 19.3 (00:00) 22.6 7.78 (14:10) 4.17 (00:50) 20.9 0 0 18 2.9
20-08-2020 34.6 (15:20) 21.2 (00:00) 27.9 12.78 (03:00) 7.5 (03:10) 0 0 0 0 0
19-08-2020 38.2 (18:00) 20 (00:00) 29.1 11.67 (13:40) 8.61 (13:50) 0 0 0 0 0

Gráficas

Temp. máximas Temp. mínimas Temp. medias Precipitaciones Rachas de viento máximas Velocidades máximas media en intervalos de 10 minutos

Datos horarios

Fecha y hora oficial Temperatura (ºC) Velocidad del viento (km/h) Dirección del viento Racha (km/h) Dirección de racha Precipitación (mm) Presión (hPa) Tendencia (hPa) Humedad (%)
2020-09-17 23:00:00 24 6 Sudoeste 9 Oeste 0 1010.1 -- 67
2020-09-17 22:00:00 24.1 7 Sur 9 Sur 0 1010.3 -- 75
2020-09-17 21:00:00 24.8 4 Sudoeste 9 Sudoeste 0 1009.7 -- 79
2020-09-17 20:00:00 25.7 3 Sur 8 Norte 0 1009.6 -- 71
2020-09-17 19:00:00 26.3 7 Norte 15 Norte 0 1009.9 -- 68
2020-09-17 18:00:00 27.2 13 Norte 17 Norte 0 1010.2 -- 63
2020-09-17 17:00:00 28.4 8 Norte 13 Norte 0 1010.5 -- 58
2020-09-17 16:00:00 27.8 5 Norte 15 Norte 0 1010.9 -- 61
2020-09-17 15:00:00 27.9 9 Norte 15 Norte 0 1011.5 -- 60
2020-09-17 14:00:00 24.4 6 Norte 15 Norte 0 1012.2 -- 76
2020-09-17 13:00:00 25.2 9 Norte 13 Norte 0 1012.8 -- 73
2020-09-17 12:00:00 25 10 Norte 13 Norte 0 1013.3 -- 73
2020-09-17 11:00:00 23.7 4 Nordeste 9 Nordeste 0 1013.7 -- 68
2020-09-17 10:00:00 20.6 4 Sur 9 Sur 0 1013.8 -- 81
2020-09-17 09:00:00 19.6 4 Sur 9 Sur 0 1014.1 -- 84
2020-09-17 08:00:00 18.8 5 Sudoeste 9 Sur 0 1014 -- 91
2020-09-17 07:00:00 18.8 5 Sur 11 Sur 0 1014.1 -- 91
2020-09-17 06:00:00 19 6 Sur 11 Sur 0 1014.2 -- 89
2020-09-17 05:00:00 19 6 Sudeste 11 Sudeste 0 1014.5 -- 90
2020-09-17 04:00:00 19.2 5 Sur 9 Sur 0 1015 -- 89
2020-09-17 03:00:00 19.5 6 Sur -- -- 0 1015.6 -- 89
2020-09-17 02:00:00 19.7 5 Sur 9 Sur 0 1015.9 -- 89
2020-09-17 01:00:00 20.3 4 Sudoeste 11 Sur 0 1016.3 -- 85
2020-09-17 00:00:00 21.1 5 Sur 9 Sur 0 1016.6 -- 83
2020-09-16 23:00:00 21.6 6 Sur 8 Sur 0 1016.2 -- 82
2020-09-16 22:00:00 22.4 5 Sur 9 Sur 0 1016.1 -- 78
2020-09-16 21:00:00 22.9 5 Sur 9 Sur 0 1016.1 -- 78
2020-09-16 20:00:00 24.5 3 Oeste 8 Oeste 0 1015.9 -- 76
2020-09-16 19:00:00 24.5 0 Calma 15 Norte 0 1015.9 -- 75
2020-09-16 18:00:00 25.1 12 Norte 21 Norte 0 1015.8 -- 76
2020-09-16 17:00:00 25.6 15 Nordeste 18 Nordeste 0 1015.8 -- 73
2020-09-16 16:00:00 25.3 13 Nordeste 17 Nordeste 0 1016.5 -- 71
2020-09-16 15:00:00 25 13 Nordeste 18 Nordeste 0 1017.1 -- 72
2020-09-16 14:00:00 24.6 14 Nordeste 18 Nordeste 0 1017.7 -- 75
2020-09-16 13:00:00 24.4 10 Norte 15 Norte 0 1018.1 -- 76
2020-09-16 12:00:00 25 10 Norte 13 Norte 0 1018.4 -- 65
2020-09-16 11:00:00 23 2 Sur 5 Sudoeste 0 1018.6 -- 69
2020-09-16 10:00:00 20 5 Sur 9 Sur 0 1018.7 -- 81
2020-09-16 09:00:00 18.8 6 Sur 9 Sur 0 1018.7 -- 86
2020-09-16 08:00:00 18.6 0 Calma 9 Sudeste 0 1018.4 -- 84
2020-09-16 07:00:00 18.3 7 Sur 9 Sur 0 1018.4 -- 88
2020-09-16 06:00:00 18.6 8 Sur 11 Sudeste 0 1018.4 -- 86
2020-09-16 05:00:00 18.9 6 Sur 9 Sur 0 1018.8 -- 84
2020-09-16 04:00:00 19.2 5 Sur 9 Sur 0 1019 -- 82
2020-09-16 03:00:00 19.4 7 Sur -- -- -- 1019.1 -- 84
2020-09-16 02:00:00 20 6 Sur 11 Sur 0 1019.3 -- 81
2020-09-16 01:00:00 20.5 5 Oeste 8 Sudeste 0 1019.4 -- 78
2020-09-16 00:00:00 21.1 6 Sur 9 Sur 0 1019.3 -- 76
2020-09-15 23:00:00 21.6 4 Sur 8 Sur 0 1019.3 -- 77
2020-09-15 22:00:00 22.8 0 Calma 9 Sur 0 1019 -- 73
2020-09-15 21:00:00 23.6 4 Sur 8 Oeste 0 1018.5 -- 66
2020-09-15 20:00:00 25.1 4 Norte 9 Norte 0 1018 -- 61
2020-09-15 19:00:00 26.1 6 Norte 13 Norte 0 1017.7 -- 58
2020-09-15 18:00:00 26.6 9 Nordeste 15 Nordeste 0 1017.6 -- 58
2020-09-15 17:00:00 27.2 11 Nordeste 17 Nordeste 0 1017.7 -- 54
2020-09-15 16:00:00 27.3 12 Nordeste 17 Nordeste 0 1017.9 -- 57
2020-09-15 15:00:00 26.8 10 Norte 17 Norte 0 1018.2 -- 63
2020-09-15 14:00:00 26.2 9 Norte 21 Nordeste 0 1018.5 -- 65
2020-09-15 13:00:00 25.7 15 Nordeste 22 Nordeste 0 1018.8 -- 67
2020-09-15 12:00:00 25.6 9 Norte 13 Norte 0 1018.9 -- 57
2020-09-15 11:00:00 23.4 0 Calma 11 Sur 0 1019.1 -- 74
2020-09-15 10:00:00 21.2 9 Sudoeste 11 Sudoeste 0 1018.8 -- 87
2020-09-15 09:00:00 20.8 4 Oeste 8 Oeste 0 1018.5 -- 89
2020-09-15 08:00:00 20.9 5 Oeste 13 Sudoeste 0 1018.7 -- 87
2020-09-15 07:00:00 21 13 Sudoeste 17 Sudoeste 0.4 1019.1 -- 88
2020-09-15 06:00:00 21.8 9 Sudoeste 17 Sur 0 1019.6 -- 83
2020-09-15 05:00:00 22.1 12 Sudoeste 22 Sudoeste 0 1019.7 -- 83
2020-09-15 04:00:00 22.1 9 Sudoeste 13 Sudoeste 0 1019.3 -- 83
2020-09-15 03:00:00 22.2 8 Sudoeste -- -- -- 1019.5 -- 82
2020-09-15 02:00:00 22.6 10 Sudoeste 28 Oeste 0 1019.7 -- 81
2020-09-15 01:00:00 22.3 6 Sudoeste 15 Noroeste 0 1019.1 -- 76
2020-09-15 00:00:00 22.5 0 Calma 9 Sudoeste 0 1017.8 -- 75
2020-09-14 23:00:00 22.9 5 Noroeste 15 Nordeste 0 1017.8 -- 73
2020-09-14 22:00:00 23.7 11 Nordeste 13 Nordeste 0 1017.5 -- 69
2020-09-14 21:00:00 24.6 9 Sur 17 Sudoeste 0 1016.7 -- 66
2020-09-14 20:00:00 24.7 14 Oeste 28 Sudoeste 0 1016.9 -- 66
2020-09-14 19:00:00 25.5 14 Sudoeste 30 Oeste 0 1017.3 -- 65
2020-09-14 18:00:00 31.2 16 Oeste 24 Oeste 0 1016.3 -- 44
2020-09-14 17:00:00 34.8 10 Norte 15 Norte 0 1015.8 -- 28
2020-09-14 16:00:00 33 9 Norte 21 Sur 0 1016.5 -- 31
2020-09-14 15:00:00 34.2 18 Sur 26 Sur 0 1016.8 -- 26
2020-09-14 14:00:00 34.3 17 Sur 33 Sur 0 1017.1 -- 25
2020-09-14 13:00:00 33.7 24 Sur 35 Sur 0 1017.3 -- 26
2020-09-14 12:00:00 32.5 20 Sur 35 Sur 0 1017.7 -- 27
2020-09-14 11:00:00 31.6 20 Sur 39 Sudoeste 0 1017.8 -- 28
2020-09-14 10:00:00 30.4 14 Sur 28 Sur 0 1017.4 -- 29
2020-09-14 09:00:00 29.4 13 Sudoeste 26 Sudoeste 0 1017.1 -- 30
2020-09-14 08:00:00 29.2 12 Sudoeste 30 Sudoeste 0 1016.7 -- 30
2020-09-14 07:00:00 29 13 Sudoeste 26 Sur 0 1016.2 -- 30
2020-09-14 06:00:00 29.3 13 Sudoeste 28 Sur 0 1016.1 -- 30
2020-09-14 05:00:00 29.8 14 Sudoeste 30 Sur 0 1016.3 -- 28
2020-09-14 04:00:00 29.6 15 Sur 28 Sur 0 1016.6 -- 29
2020-09-14 03:00:00 27.4 7 Sudoeste -- -- -- 1016.9 -- 33
2020-09-14 02:00:00 26.6 13 Oeste 17 Sudoeste 0 1016.9 -- 34
2020-09-14 01:00:00 22.3 7 Oeste 17 Oeste 0 1017 -- 57
2020-09-14 00:00:00 21.5 9 Sudoeste 18 Sur 0 1017.2 -- 73
2020-09-13 23:00:00 22.3 7 Sudoeste 13 Sur 0 1017.4 -- 76
2020-09-13 22:00:00 24.6 6 Sudoeste 18 Sur 0 1017.3 -- 66
2020-09-13 21:00:00 26 10 Sur 11 Sur 0 1016.6 -- 66
2020-09-13 20:00:00 29 5 Norte 9 Norte 0 1016.6 -- 57
2020-09-13 19:00:00 31.4 5 Norte 15 Norte 0 1016.6 -- 46
2020-09-13 18:00:00 31.9 12 Norte 18 Norte 0 1016.7 -- 44
2020-09-13 17:00:00 31.3 15 Norte 21 Norte 0 1017 -- 49
2020-09-13 16:00:00 30.2 11 Norte 17 Norte 0 1017.6 -- 51
2020-09-13 15:00:00 30.1 12 Norte 18 Norte 0 1018.3 -- 53
2020-09-13 14:00:00 28.6 14 Norte 21 Norte 0 1018.8 -- 57
2020-09-13 13:00:00 28.4 16 Norte 22 Norte 0 1019.3 -- 58
2020-09-13 12:00:00 28.2 14 Este 28 Este 0 1019.9 -- 43
2020-09-13 11:00:00 23.3 10 Norte 13 Norte 0 1020.2 -- 66
2020-09-13 10:00:00 19.1 7 Sur 13 Sur 0 1020.2 -- 78
2020-09-13 09:00:00 16.7 7 Sur 8 Sudoeste 0 1020.2 -- 88
2020-09-13 08:00:00 15.1 4 Sudoeste 8 Sudoeste 0 1020.1 -- 90
2020-09-13 07:00:00 15.5 6 Sudoeste 8 Sudoeste 0 1019.9 -- 91
2020-09-13 06:00:00 15.7 4 Sudoeste 9 Sur 0 1020 -- 90
2020-09-13 05:00:00 16.4 8 Sur 9 Sur 0 1020.2 -- 89
2020-09-13 04:00:00 16.6 6 Sur 11 Sur 0 1020.7 -- 88
2020-09-13 03:00:00 17.1 6 Sur -- -- -- 1021 -- 88
2020-09-13 02:00:00 17.3 7 Sur 11 Sur 0 1021.3 -- 88
2020-09-13 01:00:00 18 6 Sur 9 Sur 0 1021.4 -- 85
2020-09-13 00:00:00 18.7 5 Sudoeste 9 Sur 0 1021.5 -- 82
2020-09-12 23:00:00 19.5 6 Sur 9 Sur 0 1021.5 -- 81
2020-09-12 22:00:00 20.3 4 Sur 9 Sur 0 1020.9 -- 80
2020-09-12 21:00:00 21.3 6 Sudoeste 8 Sur 0 1020.3 -- 76
2020-09-12 20:00:00 22.5 3 Nordeste 11 Norte 0 1020.1 -- 72
2020-09-12 19:00:00 23.3 6 Norte 15 Nordeste 0 1019.8 -- 66
2020-09-12 18:00:00 23.3 12 Nordeste 17 Norte 0 1019.9 -- 69
2020-09-12 17:00:00 24.1 12 Norte 18 Norte 0 1019.7 -- 65
2020-09-12 16:00:00 25.4 14 Norte 22 Norte 0 1020 -- 61
2020-09-12 15:00:00 25.3 13 Norte 21 Norte 0 1019.8 -- 66
2020-09-12 14:00:00 24.4 11 Norte 17 Norte 0 1019.9 -- 60
2020-09-12 13:00:00 24.1 10 Norte 17 Nordeste 0 1020.2 -- 66
2020-09-12 12:00:00 23.3 9 Nordeste 13 Nordeste 0 1020.1 -- 69
2020-09-12 11:00:00 21.3 5 Sur 8 Sudeste 0 1019.9 -- 75
2020-09-12 10:00:00 19.3 5 Sudeste 9 Sur 0 1019.5 -- 82
2020-09-12 09:00:00 17.6 8 Sudeste 13 Sur 0 1019.1 -- 89
2020-09-12 08:00:00 16.9 8 Sur 11 Sur 0 1018.7 -- 90
2020-09-12 07:00:00 17.1 8 Sudeste 11 Sudeste 0 1018.2 -- 90
2020-09-12 06:00:00 17.2 9 Sur 13 Sur 0 1017.9 -- 91
2020-09-12 05:00:00 17.3 9 Sur 11 Sur 0 1017.7 -- 91
2020-09-12 04:00:00 17.4 9 Sur 11 Sur 0 1017.4 -- 89
2020-09-12 03:00:00 18.2 6 Sudeste -- -- -- 1017.3 -- 89
2020-09-12 02:00:00 18.2 8 Sur 11 Sur 0 1017.4 -- 88
2020-09-12 01:00:00 18.9 9 Sur 11 Sur 0 1017.4 -- 88
2020-09-12 00:00:00 19.6 7 Sur 9 Sur 0 1017.5 -- 87
2020-09-11 23:00:00 20 6 Sur 9 Sur 0 1017.4 -- 86
2020-09-11 22:00:00 20.7 6 Sur -- -- 0 1017 -- 84
2020-09-11 21:00:00 21.6 4 Oeste 9 Norte 0 1016.3 -- 82
2020-09-11 20:00:00 22.7 5 Norte 13 Norte 0 1016.1 -- 77
2020-09-11 19:00:00 23.9 9 Norte 15 Norte 0 1016 -- 70
2020-09-11 18:00:00 24.5 10 Norte 18 Norte 0 1015.8 -- 68
2020-09-11 17:00:00 24.8 11 Norte 17 Norte 0 1016 -- 67
2020-09-11 16:00:00 24.2 12 Norte 18 Norte 0 1016.3 -0.7 71
2020-09-11 15:00:00 24.1 13 Norte 18 Norte 0 1016.4 -- 71
2020-09-11 14:00:00 24.2 12 Norte 17 Norte 0 1016.6 -- 70
2020-09-11 13:00:00 24.1 11 Nordeste 15 Norte 0 1017 -- 69
2020-09-11 12:00:00 23.5 10 Norte 15 Norte 0 1017.2 0 75
2020-09-11 11:00:00 22.2 5 Sudeste 9 Sudeste 0 1017.3 -- 75
2020-09-11 10:00:00 19.3 5 Sur 11 Sudeste 0 1017.2 -- 84
2020-09-11 09:00:00 17.9 8 Sur 13 Sudeste 0 1017.2 -- 88
2020-09-11 08:00:00 17.7 8 Sur 11 Sur 0 1016.8 -- 89
2020-09-11 07:00:00 17.7 9 Sur 13 Sur 0 1016.7 -- 89
2020-09-11 06:00:00 18 7 Sur 9 Sur 0 1016.8 -- 88
2020-09-11 05:00:00 18.2 9 Sur 13 Sur 0 1017.2 -- 87
2020-09-11 04:00:00 18.5 8 Sur 11 Sur 0 1017.5 -- 87
2020-09-11 03:00:00 18.4 8 Sur -- -- -- 1017.9 -- 87
2020-09-11 02:00:00 18.7 9 Sur 11 Sur 0 1018.4 -- 86
2020-09-11 01:00:00 19 6 Sur 9 Sur 0 1018.8 0.2 85
2020-09-11 00:00:00 19.2 7 Sur 9 Sur 0 1019 -- 85
2020-09-10 23:00:00 20.1 7 Sur 11 Sudoeste 0 1018.9 -- 86
2020-09-10 22:00:00 20.6 9 Sudoeste 13 Oeste 0 1018.6 -- 84
2020-09-10 21:00:00 21.3 3 Sudoeste 9 Sudoeste 0 1018.3 -- 80
2020-09-10 20:00:00 22.5 9 Oeste 17 Oeste 0 1018.3 -- 75
2020-09-10 19:00:00 24 13 Noroeste 24 Oeste 0 1018.5 -- 70
2020-09-10 18:00:00 24.8 15 Oeste 26 Noroeste 0 1018.5 -- 66
2020-09-10 17:00:00 25.8 13 Noroeste 22 Noroeste 0 1018.9 -- 60
2020-09-10 16:00:00 25.9 17 Noroeste 30 Oeste 0 1019.5 -- 50
2020-09-10 15:00:00 25.2 16 Noroeste 24 Oeste 0 1020.1 -- 53
2020-09-10 14:00:00 24.7 13 Noroeste 22 Noroeste 0 1020.7 -- 63
2020-09-10 13:00:00 24.5 14 Noroeste 22 Noroeste 0 1021.1 -- 62
2020-09-10 12:00:00 24 14 Noroeste 26 Noroeste 0 1021.4 -- 63
2020-09-10 11:00:00 22.5 10 Sudoeste 15 Sudoeste 0 1021.1 -- 65
2020-09-10 10:00:00 19.9 10 Sur 15 Sur 0 1021 -- 70
2020-09-10 09:00:00 17.6 12 Sur 17 Sudoeste 0 1020.7 -- 76
2020-09-10 08:00:00 16.7 12 Sudoeste 18 Sudoeste 0 1020.4 -- 80
2020-09-10 07:00:00 16.9 12 Sudoeste 17 Sudoeste 0 1020.4 -- 80
2020-09-10 06:00:00 17.2 12 Sur 18 Sudoeste 0 1020.7 -- 79
2020-09-10 05:00:00 17.8 13 Sudoeste 18 Sur 0 1020.8 -- 79
2020-09-10 04:00:00 17.8 10 Sur 15 Sudoeste 0 1021.2 -- 81
2020-09-10 03:00:00 18.3 11 Sur -- -- -- 1021.4 -- 78
2020-09-10 02:00:00 18.5 10 Sur 21 Sudoeste 0 1021.9 -- 74
2020-09-10 01:00:00 18.7 13 Sur 21 Sudoeste 0 1022.3 -- 74
2020-09-10 00:00:00 19.3 10 Sur 13 Sudoeste 0 1022.4 -- 75
2020-09-09 23:00:00 19.7 10 Sur 15 Sur 0 1022.3 -- 73
2020-09-09 22:00:00 20.5 11 Sudoeste 15 Sudoeste 0 1021.9 -- 74
2020-09-09 21:00:00 21.5 12 Sudoeste 15 Oeste 0 1021.3 -- 70
2020-09-09 20:00:00 23.6 9 Sudoeste 13 Noroeste 0 1021 -- 52
2020-09-09 19:00:00 24.7 10 Noroeste 17 Norte 0 1020.7 -- 46
2020-09-09 18:00:00 24.7 12 Noroeste 24 Norte 0 1020.9 -- 66
2020-09-09 17:00:00 25 12 Noroeste 24 Noroeste 0 1020.7 -- 62
2020-09-09 16:00:00 24.4 11 Nordeste 18 Nordeste 0 1020.7 -- 58
2020-09-09 15:00:00 24 16 Nordeste 21 Nordeste 0 1021.2 -- 63
2020-09-09 14:00:00 23.9 14 Norte 18 Norte 0 1021.2 -- 61
2020-09-09 13:00:00 23.1 13 Nordeste 17 Nordeste 0 1021.7 -- 62
2020-09-09 12:00:00 23 6 Este 9 Nordeste 0 1022 -- 48
2020-09-09 11:00:00 20.3 4 Sur 8 Sudeste 0 1022.4 -- 61
2020-09-09 10:00:00 17.5 6 Sur 9 Sur 0 1022.1 -- 72
2020-09-09 09:00:00 15.3 6 Sudeste 15 Sudeste 0 1022.2 -- 79
2020-09-09 08:00:00 14.3 8 Sur 15 Sur 0 1021.9 -- 86
2020-09-09 07:00:00 14.1 8 Sudoeste 9 Sudoeste 0 1021.6 -- 86
2020-09-09 06:00:00 14.4 7 Sur 9 Sur 0 1021.6 -- 86
2020-09-09 05:00:00 15.3 5 Sur 15 Sudeste 0 1021.7 -- 82
2020-09-09 04:00:00 15 9 Sur 11 Sur 0 1021.6 -- 84
2020-09-09 03:00:00 16 8 Sur 11 Sudeste 0 1022.2 -- 80
2020-09-09 02:00:00 16.6 6 Sur 13 Sur 0 1022.4 -- 80
2020-09-09 01:00:00 17 8 Sur 13 Sur 0 1022.8 -- 79
2020-09-09 00:00:00 17.5 8 Sur 11 Sudeste 0 1023.2 -- 77
2020-09-08 23:00:00 17.9 8 Sur 11 Sur 0 1023.3 -- 77
2020-09-08 22:00:00 18.8 7 Sur 11 Sur 0 1023.3 -- 77
2020-09-08 21:00:00 21.4 8 Sudeste 13 Este 0 1023.1 -- 65
2020-09-08 20:00:00 22.1 10 Este 18 Nordeste 0 1022.9 -- 59
2020-09-08 19:00:00 22.6 14 Nordeste 21 Nordeste 0 1022.9 -- 55
2020-09-08 18:00:00 23.2 13 Norte 21 Norte 0 1023 -- 53
2020-09-08 17:00:00 24.1 13 Norte 18 Norte 0 1023.2 -- 55
2020-09-08 16:00:00 24.1 10 Norte 17 Nordeste 0 1023.5 -- 45
2020-09-08 15:00:00 22.8 11 Norte 18 Norte 0 1024.1 -- 55
2020-09-08 14:00:00 21.5 13 Norte 18 Nordeste 0 1024.8 -- 62
2020-09-08 13:00:00 21.1 12 Norte 18 Norte 0 1025.5 -- 61
2020-09-08 12:00:00 20.6 10 Norte 11 Nordeste 0 1026 -- 60
2020-09-08 11:00:00 19 5 Sudeste 8 Sudeste 0 1026.1 -- 65
2020-09-08 10:00:00 16.2 6 Sur 11 Sur 0 1025.9 -- 76
2020-09-08 09:00:00 14 6 Sur 13 Sur 0 1025.7 -- 84
2020-09-08 08:00:00 13 6 Sur 11 Sur 0 1025.3 -- 89
2020-09-08 07:00:00 13.3 9 Sur 11 Sur 0 1025 -- 87
2020-09-08 06:00:00 13.4 7 Sur 9 Sur 0 1025 -- 87
2020-09-08 05:00:00 13.7 8 Sur 11 Sur 0 1025.1 -- 87
2020-09-08 04:00:00 13.9 8 Sur -- -- 0 1025.1 -- 87
2020-09-08 03:00:00 15 5 Sur 9 Sudeste 0 1025.3 -- 84
2020-09-08 02:00:00 15.9 3 Sudoeste 9 Sur 0 1025.7 -- 81
2020-09-08 01:00:00 17 4 Oeste 11 Sudoeste 0 1025.8 -- 76
2020-09-08 00:00:00 17.7 6 Sudoeste 17 Sudeste 0 1026 -- 74
2020-09-07 23:00:00 17.7 7 Sur 15 Sur 0 1026 -- 73
2020-09-07 22:00:00 17.7 6 Sur 15 Sur 0 1025.6 -- 71
2020-09-07 21:00:00 19.1 6 Norte 17 Norte 0 1025.1 -- 63
2020-09-07 20:00:00 20.2 11 Norte 21 Norte 0 1024.8 -- 57
2020-09-07 19:00:00 21.2 13 Norte 22 Norte 0 1024.5 -- 54
2020-09-07 18:00:00 21.6 15 Norte 24 Norte 0 1024.3 -- 52
2020-09-07 17:00:00 21.8 14 Norte 28 Norte 0 1024.1 -- 50
2020-09-07 16:00:00 21.9 15 Norte 26 Norte 0 1024.3 -- 51
2020-09-07 15:00:00 21.8 14 Norte 22 Noroeste 0 1024.6 -- 46
2020-09-07 14:00:00 21.3 11 Norte 18 Norte 0 1024.8 -- 46
2020-09-07 13:00:00 20.7 11 Norte 17 Nordeste 0 1024.9 -- 53
2020-09-07 12:00:00 20.2 11 Norte 17 Nordeste 0 1024.8 -- 54
2020-09-07 11:00:00 19 5 Norte 11 Norte 0 1024.7 -- 56
2020-09-07 10:00:00 17.3 7 Oeste 11 Sudoeste 0 1023.9 -- 69
2020-09-07 09:00:00 16.1 7 Sur 11 Sudoeste 0 1023.5 -- 78
2020-09-07 08:00:00 15.1 6 Sudoeste 13 Oeste 0 1023 -- 79
2020-09-07 07:00:00 15.6 7 Sudoeste 11 Sudoeste 0 1022.4 -- 78
2020-09-07 06:00:00 16.4 4 Este 11 Nordeste 0 1022.2 -- 70
2020-09-07 05:00:00 16.5 0 Calma 11 Sudoeste 0 1021.9 -- 69
2020-09-07 04:00:00 17.6 11 Este 26 Este 0 1022.3 -- 63
2020-09-07 03:00:00 18.5 12 Nordeste 24 Nordeste 0 1022.3 -- 58
2020-09-07 02:00:00 18.3 13 Norte 22 Norte 0 1022.7 -- 60
2020-09-07 01:00:00 18.7 13 Norte 24 Norte 0 1022.9 -- 60
2020-09-07 00:00:00 18.7 13 Norte 22 Norte 0 1022.9 -- 59
2020-09-06 23:00:00 18.7 15 Norte 26 Norte 0 1022.9 -- 62
2020-09-06 22:00:00 18.9 14 Norte 22 Norte 0 1022.7 -- 60
2020-09-06 21:00:00 19.1 16 Norte 26 Norte 0 1022.1 -- 61
2020-09-06 20:00:00 19.7 15 Norte 26 Norte 0 1021.8 -- 59
2020-09-06 19:00:00 20.8 15 Norte 28 Norte 0 1021.7 -- 54
2020-09-06 18:00:00 21.8 14 Norte 26 Norte 0 1021.3 -- 51
2020-09-06 17:00:00 20.5 14 Norte 28 Noroeste 0 1021.6 -- 53
2020-09-06 16:00:00 21.1 13 Noroeste 22 Oeste 0 1021.6 -- 60
2020-09-06 15:00:00 22.6 13 Noroeste 22 Norte 0 1021.7 -- 55
2020-09-06 14:00:00 21.5 13 Noroeste 26 Noroeste 0 1022 -- 56
2020-09-06 13:00:00 21.7 13 Noroeste 24 Noroeste 0 1022.2 -- 57
2020-09-06 12:00:00 21.6 14 Noroeste 24 Noroeste 0 1022.2 -- 55
2020-09-06 11:00:00 20 5 Oeste 13 Oeste 0 1022.3 -- 64
2020-09-06 10:00:00 19.3 6 Oeste 9 Noroeste 0 1022 -- 64
2020-09-06 09:00:00 19 8 Noroeste 13 Noroeste 0 1022 -- 64
2020-09-06 08:00:00 18.8 6 Oeste 11 Oeste 0 1021.8 -- 69
2020-09-06 07:00:00 18.6 7 Noroeste 15 Noroeste 0 1021.6 -- 69
2020-09-06 06:00:00 18.9 6 Noroeste 15 Norte 0 1021.9 -- 69
2020-09-06 05:00:00 19.1 9 Noroeste 18 Norte 0 1022.1 -- 68
2020-09-06 04:00:00 19.3 10 Norte 21 Noroeste 0 1022.5 -- 69
2020-09-06 03:00:00 19.5 10 Norte 18 Norte 0 1022.7 -- 68
2020-09-06 02:00:00 19.7 13 Norte 24 Norte 0 1022.8 -- 68
2020-09-06 01:00:00 19.9 14 Norte 24 Norte 0 1023 -- 72
2020-09-06 00:00:00 20.1 14 Norte 22 Norte 0 1023.3 -- 72
2020-09-05 23:00:00 20.2 12 Norte 22 Norte 0 1023.4 -- 72
2020-09-05 22:00:00 20.1 8 Norte 18 Norte 0 1023.3 -- 71
2020-09-05 21:00:00 20.2 10 Norte 21 Norte 0 1022.7 -- 73
2020-09-05 20:00:00 20.7 14 Norte 26 Norte 0 1022.3 -- 74
2020-09-05 19:00:00 21.4 15 Norte 24 Norte 0 1022.4 -- 74
2020-09-05 18:00:00 22.4 15 Norte 26 Norte 0 1022.6 -- 70
2020-09-05 17:00:00 23 12 Norte 22 Norte 0 1022.7 -- 68
2020-09-05 16:00:00 24 14 Norte 24 Norte 0 1023 -- 64
2020-09-05 15:00:00 24.9 14 Norte 24 Norte 0 1023.2 -- 64
2020-09-05 14:00:00 24.4 16 Noroeste 30 Noroeste 0 1023.3 -- 65
2020-09-05 13:00:00 23.7 15 Noroeste 28 Noroeste 0 1023.5 -- 68
2020-09-05 12:00:00 22.8 13 Noroeste 24 Noroeste 0 1023.4 -- 71
2020-09-05 11:00:00 21.9 10 Oeste 21 Noroeste 0 1023.1 -- 75
2020-09-05 10:00:00 22.1 8 Oeste 22 Oeste 0 1022.7 -- 76
2020-09-05 09:00:00 21.2 7 Oeste 22 Sudoeste 0 1022.4 -- 79
2020-09-05 08:00:00 20.9 11 Sudoeste 21 Sudoeste 0 1022.1 -- 80
2020-09-05 07:00:00 21.6 15 Sudoeste 33 Sudoeste 0 1021.6 -- 79
2020-09-05 06:00:00 22 15 Sudoeste 35 Oeste 0 1021.4 -- 79
2020-09-05 05:00:00 22 17 Sudoeste 32 Sudoeste 0 1021.2 -- 80
2020-09-05 04:00:00 22.2 17 Oeste 30 Oeste 0 1021.2 -- 81
2020-09-05 03:00:00 21.9 17 Sudoeste 28 Sudoeste 0 1021.2 -- 83
2020-09-05 02:00:00 21.7 14 Sudoeste 22 Sudoeste 0 1020.6 -- 82
2020-09-05 01:00:00 21.9 9 Oeste 17 Oeste 0 1019.8 -- 79
2020-09-05 00:00:00 22.2 10 Sudoeste 15 Sudoeste 0 1019.5 -- 77
2020-09-04 23:00:00 23.1 9 Sudoeste 13 Sudoeste 0 1019.3 -- 75
2020-09-04 22:00:00 24.1 6 Oeste 13 Sudoeste 0 1018.8 -- 70
2020-09-04 21:00:00 25.9 8 Nordeste 13 Norte 0 1017.9 -- 59
2020-09-04 20:00:00 28.4 5 Noroeste 15 Norte 0 1017.4 -- 52
2020-09-04 19:00:00 30.3 11 Norte 15 Norte 0 1017.3 -- 43
2020-09-04 18:00:00 30.8 10 Norte 13 Norte 0 1017.5 -- 40
2020-09-04 17:00:00 30.3 8 Norte 13 Nordeste 0 1018 -- 41
2020-09-04 16:00:00 28.9 9 Norte 15 Norte 0 1018.7 -- 47
2020-09-04 15:00:00 28 10 Norte 15 Norte 0 1019.4 -- 45
2020-09-04 14:00:00 25.9 12 Nordeste 18 Nordeste 0 1019.9 -- 61
2020-09-04 13:00:00 26 12 Norte 15 Norte 0 1020.3 -- 62
2020-09-04 12:00:00 24.8 7 Norte 9 Nordeste 0 1020.5 -- 60
2020-09-04 11:00:00 23.2 4 Este 8 Nordeste 0 1020.9 -- 60
2020-09-04 10:00:00 19.3 4 Sur 8 Sur 0 1020.8 -- 74
2020-09-04 09:00:00 16.6 7 Sur 8 Sur 0 1020.6 -- 86
2020-09-04 08:00:00 15.1 7 Sudoeste 9 Sudoeste 0 1020.5 -- 90
2020-09-04 07:00:00 15.4 8 Sur 11 Sur 0 1020.3 -- 90
2020-09-04 06:00:00 15.7 6 Sur 13 Sur 0 1020.4 -- 88
2020-09-04 05:00:00 16.2 9 Sur 13 Sur 0 1020.6 -- 88
2020-09-04 04:00:00 16.7 7 Sur 9 Sur 0 1020.9 -- 87
2020-09-04 03:00:00 -- -- -- 9 Sudoeste 0 -- -- --
2020-09-04 02:00:00 17.9 6 Sudoeste 11 Sur 0 1021.4 -- 85
2020-09-04 01:00:00 18.4 9 Sur 11 Sur 0 1021.4 -- 84
2020-09-04 00:00:00 19.1 9 Sur 11 Sur 0 1021.4 -- 82
2020-09-03 23:00:00 19.8 8 Sur 9 Sur 0 1021.2 -- 82
2020-09-03 22:00:00 20.9 8 Sur 11 Sur 0 1020.8 -- 80
2020-09-03 21:00:00 22.8 4 Norte 11 Norte 0 1020.3 -- 78
2020-09-03 20:00:00 23.8 7 Norte 17 Nordeste 0 1019.9 -- 71
2020-09-03 19:00:00 24.4 9 Nordeste 22 Nordeste 0 1020 -- 70
2020-09-03 18:00:00 25.1 13 Norte 24 Nordeste 0 1019.8 -- 67
2020-09-03 17:00:00 26.7 15 Norte 26 Norte 0 1019.7 -- 57
2020-09-03 16:00:00 26.8 11 Norte 17 Norte 0 1020.1 -- 49
2020-09-03 15:00:00 25.3 10 Norte 17 Norte 0 1020.8 -- 49
2020-09-03 14:00:00 23.5 11 Norte 17 Norte 0 1021.2 -- 58
2020-09-03 13:00:00 22.5 11 Norte 17 Norte 0 1021.4 -- 57
2020-09-03 12:00:00 21.6 9 Norte 11 Nordeste 0 1021.6 -- 58
2020-09-03 11:00:00 19.7 3 Sudeste 8 Sudoeste 0 1021.5 -- 59
2020-09-03 10:00:00 16.8 4 Sudeste 13 Sudeste 0 1021.3 -- 71
2020-09-03 09:00:00 14.3 9 Sur 11 Sur 0 1021.2 -- 81
2020-09-03 08:00:00 12.9 7 Sur 11 Sudeste 0 1021.1 -- 87
2020-09-03 07:00:00 13.7 9 Sudeste 13 Sudeste 0 1020.9 -- 83
2020-09-03 06:00:00 13.8 9 Sur 11 Sudeste 0 1020.8 -- 84
2020-09-03 05:00:00 14.2 8 Sur 15 Sur 0 1020.6 -- 84
2020-09-03 04:00:00 14.3 8 Sur 11 Sur 0 1020.9 -- 85
2020-09-03 03:00:00 14.4 8 Sur 11 Sur 0 1020.9 -- 85
2020-09-03 02:00:00 15.1 7 Sur 9 Sur 0 1021.1 -- 84
2020-09-03 01:00:00 15.8 5 Sur 9 Sur 0 1021.2 -- 81
2020-09-03 00:00:00 16.7 7 Sur 9 Sur 0 1021.3 -- 78
2020-09-02 23:00:00 17.6 8 Sur 9 Sur 0 1021 -- 75
2020-09-02 22:00:00 18.9 10 Sur 17 Nordeste 0 1020.9 -- 67
2020-09-02 21:00:00 21.1 9 Norte 17 Norte 0 1020.4 -- 55
2020-09-02 20:00:00 22 13 Nordeste 21 Nordeste 0 1019.8 -- 52
2020-09-02 19:00:00 23 10 Norte 21 Norte 0 1019.3 -- 48
2020-09-02 18:00:00 23.4 16 Norte 24 Norte 0 1019.1 -- 45
2020-09-02 17:00:00 24 17 Norte 24 Norte 0 1018.8 -- 43
2020-09-02 16:00:00 24.3 15 Norte 22 Nordeste 0 1018.7 -- 43
2020-09-02 15:00:00 23.8 13 Norte 18 Norte 0 1018.8 -- 44
2020-09-02 14:00:00 23.4 11 Norte 17 Norte 0 1019 -- 45
2020-09-02 13:00:00 23 10 Norte 17 Nordeste -- 1019.2 -- 47
2020-09-02 12:00:00 22.2 9 Nordeste 13 Norte -- 1019.3 -- 55
2020-09-02 11:00:00 20 5 Sudeste 9 Sur -- 1019.3 -- 66
2020-09-02 10:00:00 17.4 7 Sur 11 Sudeste 0 1018.7 -- 74
2020-09-02 09:00:00 15.3 7 Sur 13 Sur 0 1018.4 -- 80
2020-09-02 08:00:00 14.5 8 Sur 11 Sudeste 0 1018.1 -- 87
2020-09-02 07:00:00 14.6 10 Sudeste 13 Sudeste 0 1017.8 -- 87
2020-09-02 06:00:00 14.9 8 Sur 11 Sudeste 0 1017.4 -- 88
2020-09-02 05:00:00 15.6 6 Sur 9 Sudeste 0 1017.1 -- 88
2020-09-02 04:00:00 16.4 7 Sur 11 Sur 0 1017 -- 85
2020-09-02 03:00:00 16.7 7 Sudeste 9 Sudeste 0 1017 -- 85
2020-09-02 02:00:00 17.1 8 Sur 9 Sur 0 1017.1 -- 83
2020-09-02 01:00:00 17.1 7 Sur 9 Sur 0 1017.3 -- 82
2020-09-02 00:00:00 17.7 8 Sur 11 Sur 0 1017.2 -- 81
2020-09-01 23:00:00 18.6 7 Sur 11 Sur 0 1017 -- 78
2020-09-01 22:00:00 19.5 4 Oeste 11 Norte 0 1016.8 -- 71
2020-09-01 21:00:00 21 6 Noroeste 17 Norte 0 1016.1 -- 66
2020-09-01 20:00:00 22 9 Norte 17 Norte 0 1015.6 -- 62
2020-09-01 19:00:00 22.4 9 Norte 18 Noroeste 0 1015.4 -- 59
2020-09-01 18:00:00 23.7 10 Noroeste 24 Noroeste 0 1015 -- 56
2020-09-01 17:00:00 23.9 15 Noroeste 24 Noroeste 0 1014.8 -- 54
2020-09-01 16:00:00 23.9 14 Noroeste 22 Norte 0 1014.8 -- 55
2020-09-01 15:00:00 23.8 10 Noroeste 21 Noroeste 0 1015 -- 54
2020-09-01 14:00:00 23.5 13 Norte 18 Norte 0 1015.2 -- 57
2020-09-01 13:00:00 22.4 11 Nordeste 15 Norte 0 1015.4 -- 58
2020-09-01 12:00:00 21.8 8 Nordeste 11 Nordeste 0 1015.7 -- 51
2020-09-01 11:00:00 19.7 5 Sur 9 Sudoeste 0 1015.7 -- 59
2020-09-01 10:00:00 17.1 5 Sudeste 8 Sur 0 1015.6 -- 72
2020-09-01 09:00:00 15.4 6 Sur 11 Sur 0 1015.6 -- 79
2020-09-01 08:00:00 14.5 6 Sur 9 Sur 0 1015.7 -- 85
2020-09-01 07:00:00 14.6 9 Sur 11 Sudeste 0 1015.4 -- 84
2020-09-01 06:00:00 15.6 8 Sur 11 Sur 0 1015.3 -- 83
2020-09-01 05:00:00 15.9 8 Sur 13 Sur 0 1015.5 -- 83
2020-09-01 04:00:00 16.3 10 Sur 13 Sur 0 1015.8 -- 79
2020-09-01 03:00:00 16.3 7 Sudeste 9 Sudeste 0 1016.2 -- 84
2020-09-01 02:00:00 16.2 7 Sur 9 Sudoeste 0 1016.6 -- 83
2020-09-01 01:00:00 16.6 8 Sur 9 Sur 0 1016.7 -- 84
2020-09-01 00:00:00 17 6 Sudeste 9 Sur 0 1017.1 -- 80
2020-08-31 23:00:00 17.9 4 Sudeste 11 Sudeste 0 1017.3 -- 75
2020-08-31 22:00:00 18.9 7 Sudeste 11 Sudeste 0 1017.3 -- 70
2020-08-31 21:00:00 19.8 3 Este 17 Nordeste 0 1017.4 -- 65
2020-08-31 20:00:00 20.7 11 Nordeste 18 Nordeste 0 1017.5 -- 61
2020-08-31 19:00:00 21 14 Nordeste 18 Nordeste 0 1017.8 -- 58
2020-08-31 18:00:00 21.8 10 Norte 17 Nordeste 0 1018.1 -- 54
2020-08-31 17:00:00 21.7 13 Norte 21 Norte 0 1018.6 -- 53
2020-08-31 16:00:00 21.8 13 Norte 22 Norte 0 1019 -- 52
2020-08-31 15:00:00 21.8 14 Norte 22 Norte 0 1019.3 -- 51
2020-08-31 14:00:00 21.6 13 Nordeste 18 Nordeste 0 1019.6 -- 53
2020-08-31 13:00:00 21 10 Norte 17 Nordeste 0 1020 -- 56
2020-08-31 12:00:00 20.4 5 Sudeste 9 Sudeste 0 1020.3 -- 54
2020-08-31 11:00:00 17.8 5 Sudeste 11 Sudeste 0 1020.4 -- 69
2020-08-31 10:00:00 15.5 7 Sudeste 11 Sudeste 0 1020.2 -- 79
2020-08-31 09:00:00 13.6 8 Sur 13 Sudeste 0 1020.2 -- 86
2020-08-31 08:00:00 13 9 Sudeste 13 Sudeste 0 1020.2 -- 91
2020-08-31 07:00:00 12.8 9 Sur 13 Sur 0 1020.1 -- 91
2020-08-31 06:00:00 13.3 9 Sur 13 Sur 0 1020.1 -- 91
2020-08-31 05:00:00 13.9 8 Sudeste 13 Sudeste 0 1020.5 -- 89
2020-08-31 04:00:00 14.2 8 Sur 15 Sur 0 1020.6 -- 85
2020-08-31 03:00:00 15.1 12 Sur 13 Sur 0 1020.8 -- 83
2020-08-31 02:00:00 15 9 Sur 13 Sur 0 1021 -- 85
2020-08-31 01:00:00 14.9 7 Sur 9 Sur 0 1021.1 -- 85
2020-08-31 00:00:00 15.3 6 Sur -- -- 0 1021 -- 85
2020-08-30 23:00:00 15.9 6 Sudoeste 11 Sur 0 1020.7 -- 80
2020-08-30 22:00:00 16.4 9 Sur 11 Sur 0 1020 -- 78
2020-08-30 21:00:00 17.6 6 Oeste 13 Noroeste 0 1019.5 -- 70
2020-08-30 20:00:00 19.2 8 Noroeste 17 Norte 0 1018.9 -- 60
2020-08-30 19:00:00 18.9 8 Oeste 13 Oeste 0 1018.6 -- 66
2020-08-30 18:00:00 18.5 12 Sudoeste 15 Sudoeste 0 1018.3 -- 67
2020-08-30 17:00:00 17.8 14 Sur 33 Oeste 0 1018.1 -- 67
2020-08-30 16:00:00 21 14 Oeste 26 Oeste 0 1017.8 -- 56
2020-08-30 15:00:00 19.7 15 Sudoeste 24 Sudoeste 0 1017.6 -- 64
2020-08-30 14:00:00 19.5 5 Sudeste 17 Sudeste 0 1017.6 -- 54
2020-08-30 13:00:00 17.5 9 Noroeste 18 Oeste 0 1017.3 -- 79
2020-08-30 12:00:00 16.4 4 Sudeste 18 Nordeste 0 1017.1 -- 76
2020-08-30 11:00:00 14.9 8 Norte 26 Norte 2.7 1016.5 -- 90
2020-08-30 10:00:00 14.7 11 Norte 32 Noroeste 6.7 1015.4 -- 89
2020-08-30 09:00:00 15.1 10 Oeste 28 Sudoeste 0.7 1014.4 -- 84
2020-08-30 08:00:00 14.5 14 Sudoeste 22 Oeste 0 1013.7 -- 87
2020-08-30 07:00:00 15.1 9 Sudoeste 22 Oeste 0.4 1013.2 -- 81
2020-08-30 06:00:00 14.7 10 Oeste 33 Noroeste 1.8 1013.2 -- 84
2020-08-30 05:00:00 16.2 20 Noroeste 42 Norte 1.5 1012.7 -- 79
2020-08-30 04:00:00 16.7 18 Noroeste 35 Oeste 0 1012.6 -- 74
2020-08-30 03:00:00 16.3 17 Noroeste 30 Oeste 0.5 1012.5 -- 76
2020-08-30 02:00:00 17.2 14 Oeste 30 Oeste 0 1012.7 -- 64
2020-08-30 01:00:00 17.2 12 Oeste 33 Oeste 0 1012.8 -- 67
2020-08-30 00:00:00 16.8 18 Noroeste 46 Noroeste 2.4 1012.6 -- 74
2020-08-29 23:00:00 17.7 16 Norte 33 Norte 0 1011.8 -- 75
2020-08-29 22:00:00 16.7 14 Noroeste 42 Norte 1.1 1011.3 -- 84
2020-08-29 21:00:00 15.9 9 Sudeste 28 Oeste 12.3 1009.9 -- 89
2020-08-29 20:00:00 17.1 11 Noroeste 35 Noroeste 1.8 1010.1 -- 83
2020-08-29 19:00:00 17.8 13 Noroeste 26 Noroeste 3.7 1009.3 -- 78
2020-08-29 18:00:00 18.2 9 Oeste 41 Oeste 0.8 1009 -- 80
2020-08-29 17:00:00 19.5 19 Oeste 32 Noroeste 0 1008.4 -- 71
2020-08-29 16:00:00 19.1 14 Oeste 39 Noroeste 0 1008.4 -- 75
2020-08-29 15:00:00 18.3 14 Oeste 30 Oeste 0.1 1008.5 -- 79
2020-08-29 14:00:00 18.3 9 Oeste 24 Oeste 1.1 1008.2 -- 82
2020-08-29 13:00:00 17.9 10 Sudoeste 26 Sudoeste 0.5 1008.7 -- 86
2020-08-29 12:00:00 17.6 20 Sudoeste 30 Sudoeste 0 1008.9 -- 87
2020-08-29 11:00:00 15.1 14 Sudoeste 17 Sudoeste 2.1 1008.9 -- 95
2020-08-29 10:00:00 14.4 6 Sudoeste 18 Sudoeste 7.5 1009.2 -- 94
2020-08-29 09:00:00 14.2 13 Oeste 26 Sudoeste 5.9 1008.9 -- 93
2020-08-29 08:00:00 14.7 13 Sudoeste 26 Sudoeste 2.2 1008.7 -- 93
2020-08-29 07:00:00 15 19 Sudoeste 30 Sudoeste 3.2 1008.2 -- 92
2020-08-29 06:00:00 14.9 13 Sudoeste 21 Sudoeste 1.5 1007.8 -- 93
2020-08-29 05:00:00 15 13 Sudoeste 21 Sudoeste 1.4 1008.3 -- 92
2020-08-29 04:00:00 15.2 12 Sudoeste 18 Sudoeste 1.3 1008.7 -- 92
2020-08-29 03:00:00 15.2 14 Sudoeste 22 Sur 4.1 1009.2 -- 93
2020-08-29 02:00:00 15.4 11 Sudoeste 18 Sur 0 1009.5 -- 91
2020-08-29 01:00:00 15.7 14 Sudoeste 18 Sudoeste 0 1010.1 -- 91
2020-08-29 00:00:00 15.9 13 Sur 21 Sudoeste 2 1010.4 -- 91
2020-08-28 23:00:00 16.3 15 Sur 21 Sur 0.1 1010.5 -- 91
2020-08-28 22:00:00 16.3 14 Sudoeste 30 Sudoeste 0.7 1010.6 -- 84
2020-08-28 21:00:00 16.4 13 Sudoeste 28 Sudoeste 0 1010.6 -- 89
2020-08-28 20:00:00 17.1 12 Sudoeste 33 Sudoeste 1.9 1010.6 -- 89
2020-08-28 19:00:00 17.7 9 Oeste 22 Oeste 1.5 1011.2 -- 89
2020-08-28 18:00:00 17.2 8 Noroeste 32 Noroeste 4 1011.2 -- 90
2020-08-28 17:00:00 18.1 14 Sur 32 Oeste 1 1011.2 -- 88
2020-08-28 16:00:00 18.1 18 Sudoeste 30 Sudoeste 1 1011.8 -- 88
2020-08-28 15:00:00 17.1 19 Oeste 32 Oeste 2.4 1012.4 -- 88
2020-08-28 14:00:00 17.5 9 Sur 17 Sudoeste 0.3 1012.2 -- 90
2020-08-28 13:00:00 17 8 Sudoeste 28 Oeste 2.1 1012.7 -- 87
2020-08-28 12:00:00 18.3 12 Sudoeste 21 Sudoeste 2 1013.2 -- 91
2020-08-28 11:00:00 18.3 14 Sudoeste 21 Oeste 0.5 1012.9 -- 91
2020-08-28 10:00:00 18.3 14 Sudoeste 28 Sudoeste 0 1013.1 -- 83
2020-08-28 09:00:00 18 13 Oeste 30 Sudoeste 0.5 1013.2 -- 89
2020-08-28 08:00:00 18.4 10 Oeste 26 Noroeste 3.1 1013.1 -- 91
2020-08-28 07:00:00 19.3 22 Noroeste 37 Oeste 5.8 1012.6 -- 93
2020-08-28 06:00:00 21.2 11 Sudoeste 15 Sudoeste 0.1 1011.7 -- 93
2020-08-28 05:00:00 21.6 11 Sudoeste 17 Sudoeste 0.3 1012.3 -- 90
2020-08-28 04:00:00 21.7 9 Sudoeste 15 Sudoeste 0 1012.7 -- 88
2020-08-28 03:00:00 22 8 Oeste 11 Oeste 0.1 1013.5 -- 88
2020-08-28 02:00:00 22.2 4 Sur 9 Oeste 0 1014.1 -- 85
2020-08-28 01:00:00 22.3 5 Oeste 9 Oeste 0 1014.7 -- 85
2020-08-28 00:00:00 22.9 6 Oeste 11 Oeste 0 1015.4 -- 82
2020-08-27 23:00:00 23.2 5 Oeste 9 Oeste 0 1015.9 -- 79
2020-08-27 22:00:00 23 7 Oeste 17 Oeste 0 1016.4 -- 82
2020-08-27 21:00:00 23.7 8 Oeste 15 Noroeste 0 1016.4 -- 77
2020-08-27 20:00:00 24.6 11 Oeste 18 Noroeste 0 1016.5 -- 73
2020-08-27 19:00:00 25.3 11 Oeste 24 Noroeste 0 1016.8 -- 73
2020-08-27 18:00:00 26.3 12 Oeste 26 Noroeste 0 1017 -- 69
2020-08-27 17:00:00 26.8 11 Noroeste 28 Noroeste 0 1016.9 -- 66
2020-08-27 16:00:00 29.4 15 Oeste 24 Oeste 0 1017.1 -- 50
2020-08-27 15:00:00 28.6 14 Norte 26 Norte 0 1017.2 -- 57
2020-08-27 14:00:00 29 11 Norte 17 Nordeste 0 1017 -- 57
2020-08-27 13:00:00 27.4 12 Norte 15 Norte 0 1017.4 -- 64
2020-08-27 12:00:00 27.1 3 Noroeste 11 Este 0 1017.5 -- 60
2020-08-27 11:00:00 24.6 8 Sur 13 Sur 0 1017.9 -- 69
2020-08-27 10:00:00 22 5 Sur 9 Sur 0 1018.4 -- 83
2020-08-27 09:00:00 19.7 8 Sur 9 Sur 0 1018.5 -- 91
2020-08-27 08:00:00 19 6 Sur 9 Sur 0 1018.5 -- 92
2020-08-27 07:00:00 19.1 6 Sur 8 Sur 0 1018.4 -- 92
2020-08-27 06:00:00 19.6 7 Sur 9 Sur 0 1018.5 -- 91
2020-08-27 05:00:00 20.1 4 Sur 8 Sudeste 0 1018.9 -- 89
2020-08-27 04:00:00 20.5 4 Oeste 11 Sudeste 0 1019.1 -- 89
2020-08-27 03:00:00 20.6 4 Sur 8 Sudeste 0 1019.3 -- 89
2020-08-27 02:00:00 20.7 5 Sur 9 Sur 0 1019.7 -- 89
2020-08-27 01:00:00 21.2 5 Sur 8 Sur 0 1020.2 -0.2 87
2020-08-27 00:00:00 22.2 6 Sur 8 Sur 0 1020.6 -- 85
2020-08-26 23:00:00 22.7 7 Este 15 Nordeste 0 1020.8 -- 81
2020-08-26 22:00:00 22.8 12 Nordeste 17 Nordeste 0 1020.4 -- 83
2020-08-26 21:00:00 23.1 12 Nordeste 15 Nordeste 0 1019.6 -- 83
2020-08-26 20:00:00 23.9 10 Nordeste 17 Nordeste 0 1019.5 -- 80
2020-08-26 19:00:00 24.5 13 Nordeste 18 Norte 0 1019.7 -- 77
2020-08-26 18:00:00 25.3 14 Nordeste 22 Nordeste 0 1019.8 -- 74
2020-08-26 17:00:00 25.9 14 Nordeste 21 Nordeste 0 1019.8 -- 69
2020-08-26 16:00:00 25.9 14 Nordeste 18 Nordeste 0 1020.2 -- 71
2020-08-26 15:00:00 25.3 13 Norte 21 Norte 0 1020.2 -- 74
2020-08-26 14:00:00 25.5 11 Norte 17 Norte 0 1020.2 -- 68
2020-08-26 13:00:00 25.4 13 Norte 18 Norte 0 1020.4 -- 70
2020-08-26 12:00:00 25 8 Norte 11 Norte 0 1020.5 -- 67
2020-08-26 11:00:00 23.3 5 Este 8 Este 0 1020.3 -- 74
2020-08-26 10:00:00 21.7 6 Sur 9 Sur 0 1020 -- 79
2020-08-26 09:00:00 20.6 5 Sudeste 9 Sudeste 0 1019.9 -- 83
2020-08-26 08:00:00 19.7 4 Sudeste 9 Sur 0 1019.6 -- 89
2020-08-26 07:00:00 19.7 8 Sur 11 Sur 0 1019.2 -- 87
2020-08-26 06:00:00 19.9 2 Oeste 11 Sur 0 1018.8 -- 87
2020-08-26 05:00:00 21.3 8 Sudeste 11 Sudeste 0 1018.6 -- 79
2020-08-26 04:00:00 21.4 8 Sur 9 Sur 0 1018.6 -- 80
2020-08-26 03:00:00 21.7 5 Sudeste 8 Sudeste 0 1019 -- 79
2020-08-26 02:00:00 21.9 8 Sur 13 Sudoeste 0 1019.4 -- 80
2020-08-26 01:00:00 22.3 9 Sur 13 Sur 0 1019.4 -- 78
2020-08-26 00:00:00 22.2 6 Sur 9 Sudoeste 0 1019.3 -- 79
2020-08-25 23:00:00 22.2 6 Oeste 11 Oeste 0 1019.5 -- 77
2020-08-25 22:00:00 23.1 8 Sudoeste 15 Sudoeste 0 1018.9 -- 74
2020-08-25 21:00:00 23.5 9 Sudoeste 17 Noroeste 0 1018.2 -- 71
2020-08-25 20:00:00 24.7 10 Noroeste 18 Noroeste 0 1017.4 -- 65
2020-08-25 19:00:00 26.4 6 Noroeste 15 Noroeste 0 1017.1 -- 55
2020-08-25 18:00:00 26.3 8 Noroeste 18 Noroeste 0 1016.7 -- 58
2020-08-25 17:00:00 27.2 13 Norte 24 Noroeste 0 1016.2 -- 55
2020-08-25 16:00:00 27.6 15 Oeste 24 Oeste 0 1016 -- 48
2020-08-25 15:00:00 27.5 13 Noroeste 30 Oeste 0 1015.9 -- 49
2020-08-25 14:00:00 27.6 19 Noroeste 30 Oeste 0 1015.6 -- 46
2020-08-25 13:00:00 27.4 17 Oeste 33 Noroeste 0 1015.4 -- 47
2020-08-25 12:00:00 28.7 15 Oeste 22 Noroeste 0 1014.7 -- 44
2020-08-25 11:00:00 26.3 7 Sudoeste 15 Sudoeste 0 1014 -- 51
2020-08-25 10:00:00 22.4 4 Sur 13 Sur 0 1013.4 -- 63
2020-08-25 09:00:00 18.9 5 Sur 13 Sur 0 1013.1 -- 72
2020-08-25 08:00:00 16.1 5 Oeste 9 Oeste 0 1012.4 -- 85
2020-08-25 07:00:00 15.6 5 Oeste 11 Sur 0 1011.8 -- 86
2020-08-25 06:00:00 16 6 Sudoeste 11 Sudoeste 0 1011.7 -- 87
2020-08-25 05:00:00 16.4 8 Sur 11 Sur 0 1012.2 -- 88
2020-08-25 04:00:00 16.9 9 Sur 11 Sur 0 1012.7 -- 88
2020-08-25 03:00:00 17.3 8 Sur 9 Sur 0 1013.2 -- 88
2020-08-25 02:00:00 17.7 6 Sudoeste 13 Sudoeste 0 1013.7 -- 87
2020-08-25 01:00:00 18.9 10 Sur 21 Sudeste 0 1014.2 -- 83
2020-08-25 00:00:00 19.6 10 Sudeste 17 Sudeste 0 1015 -- 81
2020-08-24 23:00:00 20.6 10 Sudeste 13 Sudeste 0 1015.7 -- 77
2020-08-24 22:00:00 21.7 8 Sudeste 15 Este 0 1015.8 -- 73
2020-08-24 21:00:00 22.2 13 Nordeste 18 Nordeste 0 1016 -- 71
2020-08-24 20:00:00 22.4 15 Nordeste 22 Nordeste 0 1015.9 -- 68
2020-08-24 19:00:00 23.3 14 Nordeste 21 Nordeste 0 1016.4 -- 64
2020-08-24 18:00:00 23.9 13 Norte 21 Nordeste 0 1017.1 -- 62
2020-08-24 17:00:00 24.4 14 Norte 22 Norte 0 1017.6 -- 58
2020-08-24 16:00:00 24.6 14 Norte 21 Norte 0 1018.3 -- 55
2020-08-24 15:00:00 24.3 12 Norte 24 Norte 0 1018.9 -- 56
2020-08-24 14:00:00 23.9 13 Norte 18 Norte 0 1019.5 -- 57
2020-08-24 13:00:00 23.9 14 Nordeste 18 Nordeste 0 1020.2 -- 54
2020-08-24 12:00:00 23.4 12 Nordeste 17 Nordeste 0 1020.8 -- 56
2020-08-24 11:00:00 22.4 7 Este 11 Este 0 1020.9 -- 59
2020-08-24 10:00:00 19.8 4 Sudoeste 8 Sudoeste 0 1020.8 -- 79
2020-08-24 09:00:00 18.4 5 Sur 8 Sur 0 1021.1 -- 88
2020-08-24 08:00:00 18.1 5 Sur 8 Sudeste 0 1020.8 -- 87
2020-08-24 07:00:00 18.3 5 Sudoeste 9 Oeste 0 1020.7 -- 88
2020-08-24 06:00:00 18.2 6 Sur 9 Sudoeste 0 1020.5 -- 88
2020-08-24 05:00:00 18.3 5 Sur 9 Sur 0 1020.9 -- 86
2020-08-24 04:00:00 18.4 8 Sur 9 Sur 0 1020.9 -- 86
2020-08-24 03:00:00 18.8 9 Sur 11 Sur 0 1021.1 -- 83
2020-08-24 02:00:00 19 8 Sudoeste 11 Sur 0 1022 -- 82
2020-08-24 01:00:00 19 7 Sur 11 Sur 0 1022.1 -0.1 83
2020-08-24 00:00:00 19.3 5 Sur 9 Sudoeste 0 1022.5 -- 80
2020-08-23 23:00:00 19.5 6 Sudoeste 11 Sudoeste 0 1022.6 -- 80
2020-08-23 22:00:00 20.2 6 Sudoeste 11 Sur 0 1022.2 -- 76
2020-08-23 21:00:00 21.6 5 Norte 13 Norte 0 1022.1 -- 67
2020-08-23 20:00:00 22.6 8 Norte 17 Norte 0 1022.2 -- 63
2020-08-23 19:00:00 23.6 10 Norte 17 Norte 0 1022.5 -- 60
2020-08-23 18:00:00 23.8 11 Norte 18 Norte 0 1022.5 -- 59
2020-08-23 17:00:00 24.5 13 Norte 24 Norte 0 1022.8 -- 58
2020-08-23 16:00:00 23.6 12 Norte 24 Norte 0 1023.2 -- 59
2020-08-23 15:00:00 23.8 12 Norte 21 Norte 0 1023.7 -- 62
2020-08-23 14:00:00 23.6 12 Norte 26 Norte 0 1023.8 -- 61
2020-08-23 13:00:00 24.5 11 Norte 18 Norte 0 1024.4 -- 56
2020-08-23 12:00:00 24 9 Nordeste 17 Norte 0 1024.4 -- 60
2020-08-23 11:00:00 23.1 7 Norte 15 Sudoeste 0 1024.5 -- 66
2020-08-23 10:00:00 21.5 6 Sur 11 Sudoeste 0 1024.3 -- 74
2020-08-23 09:00:00 19.3 6 Sudeste 9 Sudeste 0 1024.3 -- 85
2020-08-23 08:00:00 18.2 6 Sudeste 9 Sudeste 0 1024 -- 90
2020-08-23 07:00:00 18.2 8 Sur 9 Sur 0 1023.9 -- 91
2020-08-23 06:00:00 18.5 6 Sur 11 Sur 0 1023.8 -- 89
2020-08-23 05:00:00 18.9 6 Sur 9 Sur 0 1024.1 -- 89
2020-08-23 04:00:00 19.3 5 Sur 8 Sur 0 1024.3 -- 88
2020-08-23 03:00:00 19.8 -- -- -- -- 0 1024.5 -- 86
2020-08-23 02:00:00 20.3 5 Sur 8 Sur 0 1024.6 -- 84
2020-08-23 01:00:00 20.6 5 Sur 9 Sudoeste 0 1024.6 -- 81
2020-08-23 00:00:00 21.1 5 Oeste 9 Noroeste 0 1024.6 -- 77
2020-08-22 23:00:00 21.5 4 Sudoeste 11 Noroeste 0 1024.6 -- 72
2020-08-22 22:00:00 21.7 4 Noroeste 11 Oeste 0 1024.6 -- 70
2020-08-22 21:00:00 22 9 Noroeste 15 Norte 0 1024.1 -- 69
2020-08-22 20:00:00 22.3 9 Norte 17 Norte 0 1023.6 -- 73
2020-08-22 19:00:00 22.5 13 Norte 18 Norte 0 1023.6 -- 71
2020-08-22 18:00:00 22.8 13 Norte 21 Norte 0 1023.6 -- 71
2020-08-22 17:00:00 23 14 Norte 24 Norte 0 1023.6 -- 73
2020-08-22 16:00:00 24.6 16 Norte 28 Norte 0 1023.5 -- 69
2020-08-22 15:00:00 25.7 12 Norte 24 Norte 0 1023.4 -- 57
2020-08-22 14:00:00 25.9 13 Norte 21 Norte 0 1023.4 -- 59
2020-08-22 13:00:00 24.7 10 Norte 18 Norte 0 1023.4 -- 59
2020-08-22 12:00:00 23.8 10 Norte 15 Norte 0 1023.2 -- 59
2020-08-22 11:00:00 22.1 0 Calma 8 Sur 0 1023.1 -- 67
2020-08-22 10:00:00 19.7 6 Sur 11 Sur 0 1022.8 -- 85
2020-08-22 09:00:00 18.1 8 Sur 13 Sur 0 1022.4 -- 91
2020-08-22 08:00:00 17.4 10 Sudeste 13 Sudeste 0 1022.2 -- 94
2020-08-22 07:00:00 17.1 8 Sudeste 13 Sudeste 0 1021.8 -- 94
2020-08-22 06:00:00 17.1 9 Sudeste 11 Sur 0 1021.3 -- 95
2020-08-22 05:00:00 17 6 Sur 9 Sur 0 1021 -- 95
2020-08-22 04:00:00 17.5 5 Sur 8 Sur 0 1020.8 -- 94
2020-08-22 03:00:00 18 4 Sur 8 Sur 0 1020.6 -- 93
2020-08-22 02:00:00 18.9 4 Sudoeste 9 Sur 0 1020.6 -- 92
2020-08-22 01:00:00 19.3 8 Sudeste 11 Sur 0 1020.5 -- 92
2020-08-22 00:00:00 19.4 9 Sur 11 Sur 0 1020.2 -- 93
2020-08-21 23:00:00 20.1 4 Sudoeste 9 Sur 0 1020 -- 93
2020-08-21 22:00:00 20.2 4 Sur 8 Oeste 0 1019.4 -- 92
2020-08-21 21:00:00 20.6 7 Sur 9 Sur 0 1018.1 -- 91
2020-08-21 20:00:00 20.3 6 Oeste 11 Oeste 0.7 1017.4 -- 90
2020-08-21 19:00:00 20 6 Oeste 15 Sudeste 2.2 1017.5 -- 92
2020-08-21 18:00:00 19.9 3 Sur 13 Sudeste 6.4 1017 -- 92
2020-08-21 17:00:00 20.3 8 Norte 22 Noroeste 11.6 1016.6 -- 88
2020-08-21 16:00:00 22.1 11 Norte 21 Norte 0 1016 -- 73
2020-08-21 15:00:00 22.2 12 Norte 28 Norte 0 1015.8 -- 78
2020-08-21 14:00:00 23.3 13 Norte 26 Norte 0 1014.8 -- 78
2020-08-21 13:00:00 24.3 14 Norte 26 Norte 0 1014.1 -- 78
2020-08-21 12:00:00 25.8 12 Norte 17 Norte 0 1013.4 -- 77
2020-08-21 11:00:00 25.4 10 Norte 15 Nordeste 0 1013 -- 78
2020-08-21 10:00:00 24.4 3 Sudeste 5 Sudeste 0 1012.6 -- 76
2020-08-21 09:00:00 23.8 5 Sur 8 Sudoeste 0 1012.2 -- 76
2020-08-21 08:00:00 23.3 7 Oeste 13 Oeste 0 1011.3 -- 83
2020-08-21 07:00:00 22.7 6 Noroeste 15 Oeste 0 1010.7 -- 72
2020-08-21 06:00:00 22.3 4 Oeste 9 Sur 0 1009.6 -- 75
2020-08-21 05:00:00 23.5 8 Sudoeste 11 Sur 0 1008.8 -- 67
2020-08-21 04:00:00 23.4 9 Sur 13 Sur 0 1008.5 -- 71
2020-08-21 03:00:00 23.1 11 Sur 13 Sur 0 1008.2 -- 74
2020-08-21 02:00:00 23.8 9 Sur 18 Sudoeste 0 1008.3 -- 76
2020-08-21 01:00:00 23.8 15 Sudoeste 21 Sudoeste 0 1008.1 -- 78
2020-08-21 00:00:00 24.1 14 Sudoeste 28 Sudoeste 0 1007.7 -- 79
2020-08-20 23:00:00 24.4 15 Oeste 22 Sudoeste 0 1006.8 -- 80
2020-08-20 22:00:00 25 14 Sudoeste 22 Sudoeste 0 1005.2 -- 80
2020-08-20 21:00:00 26.3 15 Sudoeste 22 Sudoeste 0 1003.3 -- 68
2020-08-20 20:00:00 28.9 19 Sudoeste 33 Sudoeste 0 1002.4 -- 58
2020-08-20 19:00:00 32.3 20 Oeste 30 Noroeste 0 1001.9 -- 47
2020-08-20 18:00:00 33.6 13 Norte 22 Norte 0 1001.5 -- 38
2020-08-20 17:00:00 32.9 10 Norte 24 Norte 0 1002.4 -- 44
2020-08-20 16:00:00 33.5 15 Norte 30 Norte 0 1003 -- 37
2020-08-20 15:00:00 33.2 10 Norte 17 Norte 0 1003.8 -- 38
2020-08-20 14:00:00 32.8 8 Norte 13 Sur 0 1004.2 -- 36
2020-08-20 13:00:00 31.5 6 Sur 13 Norte 0 1004.7 -- 38
2020-08-20 12:00:00 29.8 10 Norte 17 Norte 0 1005.3 -- 53
2020-08-20 11:00:00 26.6 5 Sur 8 Sudoeste 0 1005.6 -- 60
2020-08-20 10:00:00 24 4 Sur 9 Sudoeste 0 1005.9 -- 72
2020-08-20 09:00:00 22.9 3 Oeste 15 Sudeste 0 1005.9 -- 78
2020-08-20 08:00:00 21.6 4 Sudeste 8 Sudeste 0 1005.9 -- 84
2020-08-20 07:00:00 21.3 5 Sur 9 Sur 0 1006 -- 84
2020-08-20 06:00:00 21.9 6 Sur 11 Oeste 0 1006.4 -- 81
2020-08-20 05:00:00 22.9 11 Sudoeste 22 Oeste 0 1007 -- 77
2020-08-20 04:00:00 23.9 14 Oeste 42 Oeste 0 1007.4 -- 78
2020-08-20 03:00:00 22.9 19 Oeste 46 Oeste 0 1005 -- 53
2020-08-20 02:00:00 22.9 10 Sudeste 15 Sudoeste 0 1003.7 -- 55
2020-08-20 01:00:00 22.4 12 Sur 15 Sudoeste 0 1003.3 -- 59
2020-08-20 00:00:00 23.4 9 Sur 15 Sur 0 1003.2 -- 59
2020-08-19 23:00:00 24.4 9 Sur 11 Sudoeste 0 1003 -- 60
2020-08-19 22:00:00 26.2 8 Sudoeste 13 Sur 0 1002.5 -- 55
2020-08-19 21:00:00 28.7 4 Noroeste 22 Norte 0 1002.2 -- 56
2020-08-19 20:00:00 33.2 9 Norte 18 Norte 0 1002.1 -- 36
2020-08-19 19:00:00 32.9 10 Norte 24 Nordeste 0 1002.7 -- 36
2020-08-19 18:00:00 36.6 13 Nordeste 28 Sudoeste 0 1003 -- 29
2020-08-19 17:00:00 37.4 20 Sur 33 Sudoeste 0 1003.3 -- 22
2020-08-19 16:00:00 36.9 18 Sudoeste 35 Sudoeste 0 1003.8 -- 21
2020-08-19 15:00:00 35.5 14 Sur 39 Sudoeste 0 1004.4 -- 27
2020-08-19 14:00:00 34.6 30 Sur 42 Sudoeste 0 1005.3 -- 29
2020-08-19 13:00:00 33.7 22 Sudoeste 37 Sur 0 1005.9 -- 32
2020-08-19 12:00:00 32.3 22 Sudoeste 33 Sudoeste 0 1006.6 -- 33
2020-08-19 11:00:00 30.9 21 Sudoeste 35 Sudoeste 0 1006.4 -- 37
2020-08-19 10:00:00 28.3 5 Norte 13 Sudoeste 0 1006.3 -- 47
2020-08-19 09:00:00 25.8 11 Sudoeste 13 Sudoeste 0 1006.3 -- 51
2020-08-19 08:00:00 22.4 6 Sur 11 Sudoeste 0 1006.6 -- 71
2020-08-19 07:00:00 20.4 5 Sur 8 Sur 0 1006.8 -- 79
2020-08-19 06:00:00 20.5 6 Sudoeste 13 Sur 0 1007.1 -- 80
2020-08-19 05:00:00 20.8 8 Sur 13 Sur 0 1007.8 -- 80
2020-08-19 04:00:00 20.1 8 Sudoeste 11 Sudoeste 0 1008.5 -- 85
2020-08-19 03:00:00 20.2 9 Sudoeste 11 Sudoeste 0 1009.1 -- 86
2020-08-19 02:00:00 20.6 6 Sudoeste 8 Sudoeste 0 1010.1 -- 85
2020-08-19 01:00:00 21 4 Sudoeste 8 Sudoeste 0 1010.9 -- 83
2020-08-19 00:00:00 21.6 4 Sur 9 Sudeste 0 1011.5 -- 81